Accueil
METAR-TAF:

METAR-TAF

Aéroports :

Vitoria, Espagne

Aéroport de Vitoria-Gasteiz

latitude: 42-53N, longitude: 002-43W, altitude: 513 m

Observation

Le bulletin a été fait il y a 36 minutes, à 02:00 UTC
Vent 1 kt de nord/nord-est
Température -1°C
Humidité 100%
Pression 1017 hPa
Visibilité 10 km ou plus
Nuages épars à une hauteur de 4500 ft

METAR: LEVT 010200Z 02001KT 9999 SCT045 M01/M01 Q1017

Heure: 04:36 (02:36 UTC)

Prévision

Le bulletin a été fait il y a 3 heures et 36 minutes, à 23:00 UTC
Prévision valable du 01 à 00 UTC au 01 à 24 UTC
Vent 5 kt de direction variable
Visibilité 10 km ou plus
Quelques nuages à une hauteur de 2000 ft
Probabilité 40% :
Temporairement
du 01 à 02 UTC au 01 à 08 UTC
Visibilité: 0150 m
à une hauteur de 100 ft
brouillard, brouillard givrant

TAF: LEVT 302300Z 0100/0124 VRB05KT 9999 FEW020 TX16/0115Z TNM02/0105Z PROB40 TEMPO 0102/0108 0150 FG FZFG VV001

Observations et prévisions météorologiques de plus de 4000 aéroports (messages METAR et TAF).

Les stations disponibles sont représentées par des disques jaunes et rouges sur la carte.

Passer la souris dessus pour voir le nom de la station.

Cliquer dessus pour voir les observations et prévisions météorologiques.

Pour changer de carte: cliquez sur les boutons verts avec une croix noire pour zoomer, sur le bouton vert avec un tiret pour effectuer un zoom arrière, ou sur les flèches vertes pour les cartes adjacentes.


METAR-TAF: